^^
Saratoga-Weather Station Historical Data
Daily Summary for September 5, 2021 Units:  Both    English   Metric
Daily Weekly Monthly Yearly Custom
  High: Low: Average:
Temperature: 67.8 °F /  19.9 °C 59.9 °F /  15.5 °C 61.7 °F /  16.5 °C
Dew Point: 64.4 °F /  18 °C 57.7 °F /  14.3 °C 59.4 °F /  15.2 °C
Humidity: 95% 87% 92%
Wind Speed: 6.9mph /  11.1km/h - 1.5mph /  2.4km/h
Wind Gust: 12mph /  19.3km/h - -
Wind- - SSE
Pressure: 29.8 in /  1010.2 hPa 29.8 in /  1007.5 hPa -
Precipitation: 0.03 in /  0.8 mm    
Historical Graphs
 
 
Tabular Data for September 5, 2021
Time Temperature Dew Point Pressure Wind Wind Speed Wind Gust Humidity Rainfall Rate (Hourly) solar
00:04 61.7 °F /  16.5 °C 59.4 °F /  15.2 °C 29.8in /  1010.2hPa Calm     92% 0in /  0.0mm 0 W/m2
00:09 61.3 °F /  16.3 °C 59.4 °F /  15.2 °C 29.8in /  1010.2hPa Calm   2mph /  3.2km/h 93% 0in /  0.0mm 0 W/m2
00:14 61.2 °F /  16.2 °C 59.2 °F /  15.1 °C 29.8in /  1010.2hPa Calm   2mph /  3.2km/h 93% 0in /  0.0mm 0 W/m2
00:19 61 °F /  16.1 °C 59 °F /  15 °C 29.8in /  1010.2hPa Calm     93% 0in /  0.0mm 0 W/m2
00:24 61 °F /  16.1 °C 59 °F /  15 °C 29.8in /  1010.2hPa Calm   1mph /  1.6km/h 93% 0in /  0.0mm 0 W/m2
00:29 60.8 °F /  16 °C 59 °F /  15 °C 29.8in /  1010.2hPa Calm     94% 0in /  0.0mm 0 W/m2
00:34 60.6 °F /  15.9 °C 58.8 °F /  14.9 °C 29.8in /  1010.2hPa Calm   1mph /  1.6km/h 94% 0in /  0.0mm 0 W/m2
00:39 60.6 °F /  15.9 °C 58.8 °F /  14.9 °C 29.8in /  1010.2hPa Calm     94% 0in /  0.0mm 0 W/m2
00:44 60.6 °F /  15.9 °C 58.8 °F /  14.9 °C 29.8in /  1009.8hPa Calm     94% 0in /  0.0mm 0 W/m2
00:49 60.6 °F /  15.9 °C 58.8 °F /  14.9 °C 29.8in /  1009.8hPa Calm     94% 0in /  0.0mm 0 W/m2
00:54 60.4 °F /  15.8 °C 58.6 °F /  14.8 °C 29.8in /  1009.8hPa Calm     94% 0in /  0.0mm 0 W/m2
00:59 60.3 °F /  15.7 °C 58.5 °F /  14.7 °C 29.8in /  1009.8hPa Calm     94% 0in /  0.0mm 0 W/m2
01:04 60.1 °F /  15.6 °C 58.3 °F /  14.6 °C 29.8in /  1010.2hPa Calm   2mph /  3.2km/h 94% 0in /  0.0mm 0 W/m2
01:09 59.9 °F /  15.5 °C 58.1 °F /  14.5 °C 29.8in /  1009.8hPa SW 0.9mph /  1.4km/h 1mph /  1.6km/h 94% 0in /  0.0mm 0 W/m2
01:14 59.9 °F /  15.5 °C 58.1 °F /  14.5 °C 29.8in /  1010.2hPa Calm     94% 0in /  0.0mm 0 W/m2
01:19 59.9 °F /  15.5 °C 58.1 °F /  14.5 °C 29.8in /  1010.2hPa Calm   2mph /  3.2km/h 94% 0in /  0.0mm 0 W/m2
01:24 59.9 °F /  15.5 °C 58.1 °F /  14.5 °C 29.8in /  1010.2hPa ENE 0.9mph /  1.4km/h 3mph /  4.8km/h 94% 0in /  0.0mm 0 W/m2
01:29 59.9 °F /  15.5 °C 58.1 °F /  14.5 °C 29.8in /  1010.2hPa ENE 0.9mph /  1.4km/h 2mph /  3.2km/h 94% 0in /  0.0mm 0 W/m2
01:34 59.9 °F /  15.5 °C 58.1 °F /  14.5 °C 29.8in /  1010.2hPa Calm   3mph /  4.8km/h 94% 0in /  0.0mm 0 W/m2
01:39 60.1 °F /  15.6 °C 58.3 °F /  14.6 °C 29.8in /  1009.8hPa NE 0.9mph /  1.4km/h 2mph /  3.2km/h 94% 0in /  0.0mm 0 W/m2
01:44 60.1 °F /  15.6 °C 58.6 °F /  14.8 °C 29.8in /  1009.8hPa ENE 0.9mph /  1.4km/h 2mph /  3.2km/h 95% 0in /  0.0mm 0 W/m2
01:49 60.3 °F /  15.7 °C 58.5 °F /  14.7 °C 29.8in /  1009.8hPa Calm   1mph /  1.6km/h 94% 0in /  0.0mm 0 W/m2
01:54 60.4 °F /  15.8 °C 58.6 °F /  14.8 °C 29.8in /  1009.8hPa NE 2mph /  3.2km/h 3mph /  4.8km/h 94% 0in /  0.0mm 0 W/m2
01:59 60.6 °F /  15.9 °C 58.8 °F /  14.9 °C 29.8in /  1009.8hPa ENE 2mph /  3.2km/h 3mph /  4.8km/h 94% 0in /  0.0mm 0 W/m2
02:04 61 °F /  16.1 °C 59.2 °F /  15.1 °C 29.8in /  1009.8hPa Calm   2mph /  3.2km/h 94% 0in /  0.0mm 0 W/m2
02:09 61.2 °F /  16.2 °C 59.2 °F /  15.1 °C 29.8in /  1010.2hPa ENE 2.9mph /  4.7km/h 3mph /  4.8km/h 93% 0in /  0.0mm 0 W/m2
02:14 61.3 °F /  16.3 °C 59.4 °F /  15.2 °C 29.8in /  1010.2hPa Calm   5mph /  8km/h 93% 0in /  0.0mm 0 W/m2
02:19 61.5 °F /  16.4 °C 59.5 °F /  15.3 °C 29.8in /  1009.8hPa NNE 0.9mph /  1.4km/h 3mph /  4.8km/h 93% 0in /  0.0mm 0 W/m2
02:24 61.9 °F /  16.6 °C 59.5 °F /  15.3 °C 29.8in /  1009.8hPa North 0.9mph /  1.4km/h 5mph /  8km/h 92% 0in /  0.0mm 0 W/m2
02:29 62.1 °F /  16.7 °C 59.7 °F /  15.4 °C 29.8in /  1009.8hPa North 2mph /  3.2km/h 2mph /  3.2km/h 92% 0in /  0.0mm 0 W/m2
02:34 62.1 °F /  16.7 °C 59.7 °F /  15.4 °C 29.8in /  1009.8hPa SSW 0.9mph /  1.4km/h 3mph /  4.8km/h 92% 0in /  0.0mm 0 W/m2
02:39 62.1 °F /  16.7 °C 59.7 °F /  15.4 °C 29.8in /  1009.5hPa North 2mph /  3.2km/h 4mph /  6.4km/h 92% 0in /  0.0mm 0 W/m2
02:44 62.1 °F /  16.7 °C 59.7 °F /  15.4 °C 29.8in /  1009.5hPa North 0.9mph /  1.4km/h 3mph /  4.8km/h 92% 0in /  0.0mm 0 W/m2
02:49 62.1 °F /  16.7 °C 59.4 °F /  15.2 °C 29.8in /  1009.5hPa Calm   4mph /  6.4km/h 91% 0in /  0.0mm 0 W/m2
02:54 62.1 °F /  16.7 °C 59.4 °F /  15.2 °C 29.8in /  1009.5hPa SSE 0.9mph /  1.4km/h 5mph /  8km/h 91% 0in /  0.0mm 0 W/m2
02:59 62.1 °F /  16.7 °C 59.4 °F /  15.2 °C 29.8in /  1009.8hPa Calm   4mph /  6.4km/h 91% 0in /  0.0mm 0 W/m2
03:04 62.1 °F /  16.7 °C 59.4 °F /  15.2 °C 29.8in /  1009.8hPa Calm   1mph /  1.6km/h 91% 0in /  0.0mm 0 W/m2
03:09 62.1 °F /  16.7 °C 59.4 °F /  15.2 °C 29.8in /  1009.8hPa NNW 0.9mph /  1.4km/h 3mph /  4.8km/h 91% 0in /  0.0mm 0 W/m2
03:14 62.1 °F /  16.7 °C 59.4 °F /  15.2 °C 29.8in /  1009.8hPa Calm   2mph /  3.2km/h 91% 0in /  0.0mm 0 W/m2
03:19 62.1 °F /  16.7 °C 59.4 °F /  15.2 °C 29.8in /  1009.8hPa Calm   3mph /  4.8km/h 91% 0in /  0.0mm 0 W/m2
03:24 62.1 °F /  16.7 °C 59.4 °F /  15.2 °C 29.8in /  1009.8hPa Calm   2mph /  3.2km/h 91% 0in /  0.0mm 0 W/m2
03:29 62.1 °F /  16.7 °C 59.4 °F /  15.2 °C 29.8in /  1009.8hPa NW 0.9mph /  1.4km/h 2mph /  3.2km/h 91% 0in /  0.0mm 0 W/m2
03:34 62.1 °F /  16.7 °C 59.4 °F /  15.2 °C 29.8in /  1009.8hPa NW 6mph /  9.7km/h 6mph /  9.7km/h 91% 0in /  0.0mm 0 W/m2
03:39 62.1 °F /  16.7 °C 59.4 °F /  15.2 °C 29.8in /  1009.8hPa ENE 0.9mph /  1.4km/h 4mph /  6.4km/h 91% 0in /  0.0mm 0 W/m2
03:44 62.1 °F /  16.7 °C 59.4 °F /  15.2 °C 29.8in /  1009.8hPa WNW 0.9mph /  1.4km/h 5mph /  8km/h 91% 0in /  0.0mm 0 W/m2
03:49 62.1 °F /  16.7 °C 59.4 °F /  15.2 °C 29.8in /  1009.8hPa Calm   3mph /  4.8km/h 91% 0in /  0.0mm 0 W/m2
03:54 62.1 °F /  16.7 °C 59.4 °F /  15.2 °C 29.8in /  1009.5hPa West 2mph /  3.2km/h 5mph /  8km/h 91% 0in /  0.0mm 0 W/m2
03:59 62.1 °F /  16.7 °C 59.2 °F /  15.1 °C 29.8in /  1009.5hPa WNW 4.9mph /  7.9km/h 9mph /  14.5km/h 90% 0in /  0.0mm 0 W/m2
04:04 61.9 °F /  16.6 °C 59 °F /  15 °C 29.8in /  1009.5hPa SW 2mph /  3.2km/h 3mph /  4.8km/h 90% 0in /  0.0mm 0 W/m2
04:09 61.9 °F /  16.6 °C 59 °F /  15 °C 29.8in /  1009.1hPa WNW 2mph /  3.2km/h 9mph /  14.5km/h 90% 0in /  0.0mm 0 W/m2
04:14 61.7 °F /  16.5 °C 58.8 °F /  14.9 °C 29.8in /  1009.1hPa WNW 2.9mph /  4.7km/h 3mph /  4.8km/h 90% 0in /  0.0mm 0 W/m2
04:19 61.5 °F /  16.4 °C 58.6 °F /  14.8 °C 29.8in /  1009.5hPa WNW 2mph /  3.2km/h 7mph /  11.3km/h 90% 0in /  0.0mm 0 W/m2
04:24 61.3 °F /  16.3 °C 58.5 °F /  14.7 °C 29.8in /  1009.5hPa NW 4.9mph /  7.9km/h 5mph /  8km/h 90% 0in /  0.0mm 0 W/m2
04:29 61.3 °F /  16.3 °C 58.5 °F /  14.7 °C 29.8in /  1009.5hPa WNW 4mph /  6.4km/h 7mph /  11.3km/h 90% 0in /  0.0mm 0 W/m2
04:34 61.3 °F /  16.3 °C 58.5 °F /  14.7 °C 29.8in /  1009.8hPa WNW 6.9mph /  11.1km/h 7mph /  11.3km/h 90% 0in /  0.0mm 0 W/m2
04:39 61.2 °F /  16.2 °C 58.3 °F /  14.6 °C 29.8in /  1009.5hPa WNW 4.9mph /  7.9km/h 7mph /  11.3km/h 90% 0in /  0.0mm 0 W/m2
04:44 61.2 °F /  16.2 °C 58.3 °F /  14.6 °C 29.8in /  1009.8hPa WNW 4mph /  6.4km/h 8mph /  12.9km/h 90% 0in /  0.0mm 0 W/m2
04:49 61 °F /  16.1 °C 58.1 °F /  14.5 °C 29.8in /  1009.5hPa WNW 2.9mph /  4.7km/h 7mph /  11.3km/h 90% 0in /  0.0mm 0 W/m2
04:54 61 °F /  16.1 °C 58.1 °F /  14.5 °C 29.8in /  1009.5hPa NW 2.9mph /  4.7km/h 8mph /  12.9km/h 90% 0in /  0.0mm 0 W/m2
04:59 60.8 °F /  16 °C 57.9 °F /  14.4 °C 29.8in /  1009.1hPa West 4mph /  6.4km/h 7mph /  11.3km/h 90% 0in /  0.0mm 0 W/m2
05:05 60.6 °F /  15.9 °C 57.7 °F /  14.3 °C 29.8in /  1009.5hPa WNW 0.9mph /  1.4km/h 6mph /  9.7km/h 90% 0in /  0.0mm 0 W/m2
05:10 60.6 °F /  15.9 °C 57.9 °F /  14.4 °C 29.8in /  1009.5hPa West 4mph /  6.4km/h 6mph /  9.7km/h 91% 0in /  0.0mm 0 W/m2
05:15 60.6 °F /  15.9 °C 57.9 °F /  14.4 °C 29.8in /  1009.5hPa WNW 2.9mph /  4.7km/h 3mph /  4.8km/h 91% 0in /  0.0mm 0 W/m2
05:20 60.4 °F /  15.8 °C 57.7 °F /  14.3 °C 29.8in /  1009.5hPa West 6mph /  9.7km/h 6mph /  9.7km/h 91% 0in /  0.0mm 0 W/m2
05:25 60.4 °F /  15.8 °C 57.7 °F /  14.3 °C 29.8in /  1009.1hPa NNW 0.9mph /  1.4km/h 4mph /  6.4km/h 91% 0in /  0.0mm 0 W/m2
05:30 60.4 °F /  15.8 °C 57.7 °F /  14.3 °C 29.8in /  1009.5hPa West 2mph /  3.2km/h 3mph /  4.8km/h 91% 0in /  0.0mm 0 W/m2
05:35 60.4 °F /  15.8 °C 57.7 °F /  14.3 °C 29.8in /  1009.5hPa Calm   2mph /  3.2km/h 91% 0in /  0.0mm 0 W/m2
05:40 60.4 °F /  15.8 °C 57.7 °F /  14.3 °C 29.8in /  1009.8hPa Calm   1mph /  1.6km/h 91% 0in /  0.0mm 0 W/m2
05:45 60.4 °F /  15.8 °C 57.7 °F /  14.3 °C 29.8in /  1009.5hPa West 2mph /  3.2km/h 2mph /  3.2km/h 91% 0in /  0.0mm 0 W/m2
05:50 60.3 °F /  15.7 °C 57.9 °F /  14.4 °C 29.8in /  1009.8hPa Calm     92% 0in /  0.0mm 0 W/m2
05:55 60.3 °F /  15.7 °C 57.9 °F /  14.4 °C 29.8in /  1009.8hPa NE 0.9mph /  1.4km/h 1mph /  1.6km/h 92% 0in /  0.0mm 0 W/m2
06:00 60.3 °F /  15.7 °C 57.9 °F /  14.4 °C 29.8in /  1009.8hPa Calm     92% 0in /  0.0mm 0 W/m2
06:05 60.3 °F /  15.7 °C 57.9 °F /  14.4 °C 29.8in /  1009.8hPa Calm     92% 0in /  0.0mm 5 W/m2
06:10 60.1 °F /  15.6 °C 57.7 °F /  14.3 °C 29.8in /  1009.8hPa Calm   1mph /  1.6km/h 92% 0in /  0.0mm 7 W/m2
06:15 60.1 °F /  15.6 °C 57.7 °F /  14.3 °C 29.8in /  1009.8hPa NE 0.9mph /  1.4km/h 2mph /  3.2km/h 92% 0in /  0.0mm 7 W/m2
06:20 60.1 °F /  15.6 °C 57.7 °F /  14.3 °C 29.8in /  1009.8hPa Calm     92% 0in /  0.0mm 7 W/m2
06:25 60.1 °F /  15.6 °C 57.7 °F /  14.3 °C 29.8in /  1009.8hPa Calm     92% 0in /  0.0mm 7 W/m2
06:30 60.1 °F /  15.6 °C 57.7 °F /  14.3 °C 29.8in /  1009.8hPa Calm     92% 0in /  0.0mm 11 W/m2
06:35 60.1 °F /  15.6 °C 58.1 °F /  14.5 °C 29.8in /  1009.8hPa Calm     93% 0in /  0.0mm 12 W/m2
06:40 59.9 °F /  15.5 °C 57.9 °F /  14.4 °C 29.8in /  1009.8hPa Calm     93% 0in /  0.0mm 18 W/m2
06:45 59.9 °F /  15.5 °C 57.9 °F /  14.4 °C 29.8in /  1009.8hPa Calm     93% 0in /  0.0mm 21 W/m2
06:50 59.9 °F /  15.5 °C 57.9 °F /  14.4 °C 29.8in /  1009.8hPa SE 2mph /  3.2km/h 3mph /  4.8km/h 93% 0in /  0.0mm 21 W/m2
06:55 60.1 °F /  15.6 °C 58.1 °F /  14.5 °C 29.8in /  1009.5hPa Calm     93% 0in /  0.0mm 26 W/m2
07:00 60.1 °F /  15.6 °C 58.1 °F /  14.5 °C 29.8in /  1009.5hPa ESE 0.9mph /  1.4km/h 3mph /  4.8km/h 93% 0in /  0.0mm 32 W/m2
07:05 60.1 °F /  15.6 °C 58.1 °F /  14.5 °C 29.8in /  1009.5hPa East 0.9mph /  1.4km/h 1mph /  1.6km/h 93% 0in /  0.0mm 33 W/m2
07:10 60.3 °F /  15.7 °C 58.3 °F /  14.6 °C 29.8in /  1009.5hPa ENE 0.9mph /  1.4km/h 2mph /  3.2km/h 93% 0in /  0.0mm 39 W/m2
07:15 60.3 °F /  15.7 °C 58.3 °F /  14.6 °C 29.8in /  1009.8hPa East 0.9mph /  1.4km/h 3mph /  4.8km/h 93% 0in /  0.0mm 42 W/m2
07:20 60.4 °F /  15.8 °C 58.5 °F /  14.7 °C 29.8in /  1009.5hPa Calm   2mph /  3.2km/h 93% 0in /  0.0mm 42 W/m2
07:25 60.4 °F /  15.8 °C 58.5 °F /  14.7 °C 29.8in /  1009.5hPa Calm   2mph /  3.2km/h 93% 0in /  0.0mm 46 W/m2
07:30 60.6 °F /  15.9 °C 58.6 °F /  14.8 °C 29.8in /  1009.5hPa Calm     93% 0in /  0.0mm 35 W/m2
07:35 60.6 °F /  15.9 °C 58.3 °F /  14.6 °C 29.8in /  1009.5hPa Calm     92% 0in /  0.0mm 30 W/m2
07:40 60.8 °F /  16 °C 58.5 °F /  14.7 °C 29.8in /  1009.5hPa Calm     92% 0in /  0.0mm 35 W/m2
07:45 61 °F /  16.1 °C 58.6 °F /  14.8 °C 29.8in /  1009.5hPa Calm     92% 0in /  0.0mm 37 W/m2
07:50 61 °F /  16.1 °C 58.6 °F /  14.8 °C 29.8in /  1009.5hPa Calm     92% 0in /  0.0mm 49 W/m2
07:55 61.2 °F /  16.2 °C 59.2 °F /  15.1 °C 29.8in /  1009.5hPa Calm     93% 0in /  0.0mm 65 W/m2
08:00 61.2 °F /  16.2 °C 59.2 °F /  15.1 °C 29.8in /  1009.5hPa ENE 2mph /  3.2km/h 2mph /  3.2km/h 93% 0in /  0.0mm 47 W/m2
08:05 61.3 °F /  16.3 °C 59 °F /  15 °C 29.8in /  1009.5hPa ENE 0.9mph /  1.4km/h 2mph /  3.2km/h 92% 0in /  0.0mm 58 W/m2
08:10 61.3 °F /  16.3 °C 59 °F /  15 °C 29.8in /  1009.5hPa ENE 2mph /  3.2km/h 2mph /  3.2km/h 92% 0in /  0.0mm 81 W/m2
08:15 61.5 °F /  16.4 °C 59.2 °F /  15.1 °C 29.8in /  1009.5hPa Calm   1mph /  1.6km/h 92% 0in /  0.0mm 63 W/m2
08:20 61.5 °F /  16.4 °C 59.2 °F /  15.1 °C 29.8in /  1009.5hPa Calm   1mph /  1.6km/h 92% 0in /  0.0mm 69 W/m2
08:25 61.7 °F /  16.5 °C 59.4 °F /  15.2 °C 29.8in /  1009.5hPa Calm     92% 0in /  0.0mm 76 W/m2
08:30 61.7 °F /  16.5 °C 59.4 °F /  15.2 °C 29.8in /  1009.5hPa Calm   1mph /  1.6km/h 92% 0in /  0.0mm 86 W/m2
08:35 61.9 °F /  16.6 °C 59.5 °F /  15.3 °C 29.8in /  1009.5hPa Calm   1mph /  1.6km/h 92% 0in /  0.0mm 109 W/m2
08:40 62.1 °F /  16.7 °C 59.7 °F /  15.4 °C 29.8in /  1009.5hPa Calm   1mph /  1.6km/h 92% 0in /  0.0mm 105 W/m2
08:45 62.1 °F /  16.7 °C 59.4 °F /  15.2 °C 29.8in /  1009.1hPa ENE 0.9mph /  1.4km/h 2mph /  3.2km/h 91% 0.01in /  0.2mm 95 W/m2
08:50 62.1 °F /  16.7 °C 59.4 °F /  15.2 °C 29.8in /  1009.1hPa East 2mph /  3.2km/h 2mph /  3.2km/h 91% 0.01in /  0.2mm 86 W/m2
08:55 61.9 °F /  16.6 °C 59.2 °F /  15.1 °C 29.8in /  1009.5hPa East 0.9mph /  1.4km/h 3mph /  4.8km/h 91% 0.01in /  0.2mm 120 W/m2
09:01 61.9 °F /  16.6 °C 59.2 °F /  15.1 °C 29.8in /  1009.1hPa SE 2mph /  3.2km/h 3mph /  4.8km/h 91% 0.01in /  0.2mm 114 W/m2
09:06 62.1 °F /  16.7 °C 59.7 °F /  15.4 °C 29.8in /  1009.1hPa ENE 2mph /  3.2km/h 4mph /  6.4km/h 92% 0.02in /  0.5mm 116 W/m2
09:11 61.9 °F /  16.6 °C 59.5 °F /  15.3 °C 29.8in /  1009.1hPa ESE 0.9mph /  1.4km/h 2mph /  3.2km/h 92% 0.02in /  0.5mm 98 W/m2
09:16 61.9 °F /  16.6 °C 59.5 °F /  15.3 °C 29.8in /  1009.1hPa NE 0.9mph /  1.4km/h 4mph /  6.4km/h 92% 0.02in /  0.5mm 113 W/m2
09:21 61.7 °F /  16.5 °C 59.4 °F /  15.2 °C 29.8in /  1009.1hPa ENE 0.9mph /  1.4km/h 1mph /  1.6km/h 92% 0.02in /  0.5mm 111 W/m2
09:26 61.9 °F /  16.6 °C 59.9 °F /  15.5 °C 29.8in /  1009.1hPa ESE 2mph /  3.2km/h 3mph /  4.8km/h 93% 0.02in /  0.5mm 128 W/m2
09:31 61.7 °F /  16.5 °C 59.4 °F /  15.2 °C 29.8in /  1009.1hPa ENE 2.9mph /  4.7km/h 7mph /  11.3km/h 92% 0.02in /  0.5mm 156 W/m2
09:36 61.9 °F /  16.6 °C 59.5 °F /  15.3 °C 29.8in /  1009.1hPa ESE 2.9mph /  4.7km/h 5mph /  8km/h 92% 0.02in /  0.5mm 193 W/m2
09:41 61.9 °F /  16.6 °C 59.5 °F /  15.3 °C 29.8in /  1009.1hPa NE 2mph /  3.2km/h 7mph /  11.3km/h 92% 0.01in /  0.2mm 181 W/m2
09:46 61.9 °F /  16.6 °C 59.5 °F /  15.3 °C 29.8in /  1008.8hPa ESE 0.9mph /  1.4km/h 4mph /  6.4km/h 92% 0.01in /  0.2mm 209 W/m2
09:51 62.1 °F /  16.7 °C 59.7 °F /  15.4 °C 29.8in /  1008.8hPa ENE 2.9mph /  4.7km/h 4mph /  6.4km/h 92% 0.01in /  0.2mm 213 W/m2
09:56 62.1 °F /  16.7 °C 59.4 °F /  15.2 °C 29.8in /  1008.8hPa NE 2mph /  3.2km/h 4mph /  6.4km/h 91% 0.01in /  0.2mm 223 W/m2
10:01 62.1 °F /  16.7 °C 59.4 °F /  15.2 °C 29.8in /  1008.8hPa East 2mph /  3.2km/h 6mph /  9.7km/h 91% 0.01in /  0.2mm 186 W/m2
10:06 62.2 °F /  16.8 °C 59.5 °F /  15.3 °C 29.8in /  1008.8hPa ENE 4.9mph /  7.9km/h 7mph /  11.3km/h 91% 0in /  0.0mm 176 W/m2
10:11 62.1 °F /  16.7 °C 59.4 °F /  15.2 °C 29.8in /  1008.8hPa ENE 4mph /  6.4km/h 9mph /  14.5km/h 91% 0in /  0.0mm 118 W/m2
10:16 62.1 °F /  16.7 °C 59.4 °F /  15.2 °C 29.8in /  1008.8hPa SE 4mph /  6.4km/h 7mph /  11.3km/h 91% 0in /  0.0mm 116 W/m2
10:21 61.9 °F /  16.6 °C 59.2 °F /  15.1 °C 29.8in /  1008.8hPa East 2.9mph /  4.7km/h 4mph /  6.4km/h 91% 0in /  0.0mm 111 W/m2
10:26 61.5 °F /  16.4 °C 58.8 °F /  14.9 °C 29.8in /  1008.8hPa East 2.9mph /  4.7km/h 5mph /  8km/h 91% 0in /  0.0mm 123 W/m2
10:31 61.3 °F /  16.3 °C 58.6 °F /  14.8 °C 29.8in /  1008.8hPa NNE 4.9mph /  7.9km/h 5mph /  8km/h 91% 0in /  0.0mm 137 W/m2
10:36 61.3 °F /  16.3 °C 58.6 °F /  14.8 °C 29.8in /  1008.8hPa ENE 4.9mph /  7.9km/h 6mph /  9.7km/h 91% 0in /  0.0mm 135 W/m2
10:41 61.3 °F /  16.3 °C 58.5 °F /  14.7 °C 29.8in /  1008.8hPa NE 0.9mph /  1.4km/h 8mph /  12.9km/h 90% 0in /  0.0mm 178 W/m2
10:46 61.3 °F /  16.3 °C 58.5 °F /  14.7 °C 29.8in /  1008.8hPa ENE 0.9mph /  1.4km/h 5mph /  8km/h 90% 0in /  0.0mm 134 W/m2
10:51 61.5 °F /  16.4 °C 58.6 °F /  14.8 °C 29.8in /  1008.8hPa East 0.9mph /  1.4km/h 8mph /  12.9km/h 90% 0in /  0.0mm 169 W/m2
10:56 61.5 °F /  16.4 °C 58.6 °F /  14.8 °C 29.8in /  1008.8hPa East 2mph /  3.2km/h 4mph /  6.4km/h 90% 0in /  0.0mm 195 W/m2
11:01 61.5 °F /  16.4 °C 58.8 °F /  14.9 °C 29.8in /  1008.8hPa ESE 0.9mph /  1.4km/h 4mph /  6.4km/h 91% 0in /  0.0mm 199 W/m2
11:06 61.3 °F /  16.3 °C 58.6 °F /  14.8 °C 29.8in /  1008.8hPa ENE 2mph /  3.2km/h 4mph /  6.4km/h 91% 0.01in /  0.2mm 153 W/m2
11:11 61.2 °F /  16.2 °C 58.8 °F /  14.9 °C 29.8in /  1008.8hPa NE 4mph /  6.4km/h 6mph /  9.7km/h 92% 0.01in /  0.2mm 144 W/m2
11:16 60.8 °F /  16 °C 58.5 °F /  14.7 °C 29.8in /  1008.5hPa East 2.9mph /  4.7km/h 8mph /  12.9km/h 92% 0.01in /  0.2mm 176 W/m2
11:21 60.6 °F /  15.9 °C 58.3 °F /  14.6 °C 29.8in /  1008.5hPa East 4mph /  6.4km/h 6mph /  9.7km/h 92% 0.01in /  0.2mm 195 W/m2
11:26 60.6 °F /  15.9 °C 58.3 °F /  14.6 °C 29.8in /  1008.5hPa East 2.9mph /  4.7km/h 12mph /  19.3km/h 92% 0.01in /  0.2mm 281 W/m2
11:31 61 °F /  16.1 °C 59 °F /  15 °C 29.8in /  1008.5hPa East 4mph /  6.4km/h 9mph /  14.5km/h 93% 0.01in /  0.2mm 315 W/m2
11:36 61.2 °F /  16.2 °C 59.2 °F /  15.1 °C 29.8in /  1008.5hPa NE 2mph /  3.2km/h 6mph /  9.7km/h 93% 0.01in /  0.2mm 264 W/m2
11:41 61.2 °F /  16.2 °C 59.2 °F /  15.1 °C 29.8in /  1008.5hPa East 0.9mph /  1.4km/h 9mph /  14.5km/h 93% 0.01in /  0.2mm 230 W/m2
11:46 61.3 °F /  16.3 °C 59.5 °F /  15.3 °C 29.8in /  1008.5hPa NNE 2.9mph /  4.7km/h 5mph /  8km/h 94% 0.01in /  0.2mm 260 W/m2
11:51 61.5 °F /  16.4 °C 59.7 °F /  15.4 °C 29.8in /  1008.5hPa ESE 4mph /  6.4km/h 6mph /  9.7km/h 94% 0.01in /  0.2mm 267 W/m2
11:56 61.5 °F /  16.4 °C 59.7 °F /  15.4 °C 29.8in /  1008.5hPa East 0.9mph /  1.4km/h 4mph /  6.4km/h 94% 0.01in /  0.2mm 230 W/m2
12:01 61.9 °F /  16.6 °C 60.1 °F /  15.6 °C 29.8in /  1008.5hPa North 0.9mph /  1.4km/h 3mph /  4.8km/h 94% 0.01in /  0.2mm 255 W/m2
12:06 62.1 °F /  16.7 °C 60.3 °F /  15.7 °C 29.8in /  1008.5hPa East 2mph /  3.2km/h 6mph /  9.7km/h 94% 0in /  0.0mm 134 W/m2
12:11 61.9 °F /  16.6 °C 60.1 °F /  15.6 °C 29.8in /  1008.5hPa ENE 2mph /  3.2km/h 4mph /  6.4km/h 94% 0in /  0.0mm 162 W/m2
12:16 62.1 °F /  16.7 °C 60.3 °F /  15.7 °C 29.8in /  1008.5hPa ENE 2mph /  3.2km/h 6mph /  9.7km/h 94% 0in /  0.0mm 236 W/m2
12:21 62.2 °F /  16.8 °C 60.4 °F /  15.8 °C 29.8in /  1008.1hPa ENE 0.9mph /  1.4km/h 3mph /  4.8km/h 94% 0in /  0.0mm 295 W/m2
12:26 62.4 °F /  16.9 °C 60.6 °F /  15.9 °C 29.8in /  1008.1hPa NE 0.9mph /  1.4km/h 1mph /  1.6km/h 94% 0in /  0.0mm 142 W/m2
12:31 62.6 °F /  17 °C 60.8 °F /  16 °C 29.8in /  1008.1hPa WSW 2.9mph /  4.7km/h 8mph /  12.9km/h 94% 0in /  0.0mm 79 W/m2
12:36 62.6 °F /  17 °C 60.8 °F /  16 °C 29.8in /  1008.1hPa East 2mph /  3.2km/h 4mph /  6.4km/h 94% 0in /  0.0mm 127 W/m2
12:41 62.6 °F /  17 °C 60.8 °F /  16 °C 29.8in /  1008.1hPa ENE 4mph /  6.4km/h 4mph /  6.4km/h 94% 0in /  0.0mm 74 W/m2
12:46 62.4 °F /  16.9 °C 60.6 °F /  15.9 °C 29.8in /  1008.1hPa Calm   6mph /  9.7km/h 94% 0in /  0.0mm 88 W/m2
12:51 62.6 °F /  17 °C 60.8 °F /  16 °C 29.8in /  1008.1hPa NE 0.9mph /  1.4km/h 2mph /  3.2km/h 94% 0in /  0.0mm 185 W/m2
12:56 63 °F /  17.2 °C 61.2 °F /  16.2 °C 29.8in /  1008.1hPa NW 2mph /  3.2km/h 2mph /  3.2km/h 94% 0in /  0.0mm 325 W/m2
13:01 63.1 °F /  17.3 °C 61.3 °F /  16.3 °C 29.8in /  1008.1hPa North 2mph /  3.2km/h 7mph /  11.3km/h 94% 0in /  0.0mm 214 W/m2
13:06 63.7 °F /  17.6 °C 61.9 °F /  16.6 °C 29.8in /  1008.1hPa North 2mph /  3.2km/h 3mph /  4.8km/h 94% 0in /  0.0mm 359 W/m2
13:11 64.2 °F /  17.9 °C 62.4 °F /  16.9 °C 29.8in /  1008.1hPa NNW 2mph /  3.2km/h 5mph /  8km/h 94% 0in /  0.0mm 214 W/m2
13:17 64.6 °F /  18.1 °C 62.4 °F /  16.9 °C 29.8in /  1008.1hPa NW 2.9mph /  4.7km/h 7mph /  11.3km/h 93% 0in /  0.0mm 204 W/m2
13:22 64.6 °F /  18.1 °C 62.4 °F /  16.9 °C 29.8in /  1008.1hPa North 0.9mph /  1.4km/h 4mph /  6.4km/h 93% 0in /  0.0mm 292 W/m2
13:27 64.8 °F /  18.2 °C 62.6 °F /  17 °C 29.8in /  1007.8hPa NE 2.9mph /  4.7km/h 7mph /  11.3km/h 93% 0in /  0.0mm 422 W/m2
13:32 65.3 °F /  18.5 °C 63.1 °F /  17.3 °C 29.8in /  1007.8hPa WSW 2.9mph /  4.7km/h 4mph /  6.4km/h 93% 0in /  0.0mm 538 W/m2
13:37 66 °F /  18.9 °C 63.9 °F /  17.7 °C 29.8in /  1007.8hPa NNE 4mph /  6.4km/h 4mph /  6.4km/h 93% 0in /  0.0mm 450 W/m2
13:42 66.6 °F /  19.2 °C 63.9 °F /  17.7 °C 29.8in /  1007.8hPa WNW 0.9mph /  1.4km/h 4mph /  6.4km/h 91% 0in /  0.0mm 172 W/m2
13:47 66.4 °F /  19.1 °C 63 °F /  17.2 °C 29.8in /  1007.8hPa Calm   4mph /  6.4km/h 89% 0in /  0.0mm 278 W/m2
13:52 66.6 °F /  19.2 °C 63.5 °F /  17.5 °C 29.8in /  1007.8hPa North 2mph /  3.2km/h 2mph /  3.2km/h 90% 0.01in /  0.2mm 606 W/m2
13:57 66.9 °F /  19.4 °C 64.2 °F /  17.9 °C 29.8in /  1007.8hPa NNW 2.9mph /  4.7km/h 4mph /  6.4km/h 91% 0.01in /  0.2mm 339 W/m2
14:02 67.5 °F /  19.7 °C 64.4 °F /  18 °C 29.8in /  1007.8hPa WNW 2mph /  3.2km/h 6mph /  9.7km/h 90% 0.01in /  0.2mm 304 W/m2
14:07 67.6 °F /  19.8 °C 64.2 °F /  17.9 °C 29.8in /  1007.8hPa SW 0.9mph /  1.4km/h 3mph /  4.8km/h 89% 0.01in /  0.2mm 206 W/m2
14:12 67.6 °F /  19.8 °C 63.7 °F /  17.6 °C 29.8in /  1007.8hPa West 2mph /  3.2km/h 3mph /  4.8km/h 87% 0.01in /  0.2mm 193 W/m2
14:17 67.6 °F /  19.8 °C 63.7 °F /  17.6 °C 29.8in /  1007.8hPa NNW 0.9mph /  1.4km/h 4mph /  6.4km/h 87% 0.01in /  0.2mm 388 W/m2
14:22 67.8 °F /  19.9 °C 63.9 °F /  17.7 °C 29.8in /  1007.5hPa WSW 0.9mph /  1.4km/h 4mph /  6.4km/h 87% 0.01in /  0.2mm 258 W/m2
Juneau County Weather
Compliments of Weather Underground - 2 mb